sensor_id;sensor_type;location;lat;lon;timestamp;pressure;altitude;pressure_sealevel;temperature;humidity
23679;BME280;12016;51.668;6.874;2022-11-23T00:03:14;99543.44;;;9.56;100.00
23679;BME280;12016;51.668;6.874;2022-11-23T00:09:16;99543.84;;;9.54;100.00
23679;BME280;12016;51.668;6.874;2022-11-23T00:15:18;99544.22;;;9.56;100.00
23679;BME280;12016;51.668;6.874;2022-11-23T00:21:20;99543.06;;;9.57;100.00
23679;BME280;12016;51.668;6.874;2022-11-23T00:27:24;99562.00;;;9.52;100.00
23679;BME280;12016;51.668;6.874;2022-11-23T00:33:26;99564.78;;;9.55;100.00
23679;BME280;12016;51.668;6.874;2022-11-23T00:39:28;99571.84;;;9.60;100.00
23679;BME280;12016;51.668;6.874;2022-11-23T00:45:30;99572.59;;;9.68;100.00
23679;BME280;12016;51.668;6.874;2022-11-23T00:51:34;99568.25;;;9.67;100.00
23679;BME280;12016;51.668;6.874;2022-11-23T00:57:36;99570.59;;;9.72;100.00
23679;BME280;12016;51.668;6.874;2022-11-23T01:03:41;99567.84;;;9.72;100.00
23679;BME280;12016;51.668;6.874;2022-11-23T01:09:44;99576.53;;;9.74;100.00
23679;BME280;12016;51.668;6.874;2022-11-23T01:15:50;99574.19;;;9.69;100.00
23679;BME280;12016;51.668;6.874;2022-11-23T01:21:53;99583.59;;;9.82;100.00
23679;BME280;12016;51.668;6.874;2022-11-23T01:27:58;99585.94;;;9.87;100.00
23679;BME280;12016;51.668;6.874;2022-11-23T01:34:03;99591.06;;;9.85;100.00
23679;BME280;12016;51.668;6.874;2022-11-23T01:40:07;99597.34;;;9.92;100.00
23679;BME280;12016;51.668;6.874;2022-11-23T01:46:10;99597.69;;;10.05;100.00
23679;BME280;12016;51.668;6.874;2022-11-23T01:52:15;99596.91;;;10.01;100.00
23679;BME280;12016;51.668;6.874;2022-11-23T01:58:20;99596.91;;;10.01;100.00
23679;BME280;12016;51.668;6.874;2022-11-23T02:04:36;99603.22;;;10.01;100.00
23679;BME280;12016;51.668;6.874;2022-11-23T02:10:39;99613.47;;;10.08;100.00
23679;BME280;12016;51.668;6.874;2022-11-23T02:16:44;99609.47;;;10.16;100.00
23679;BME280;12016;51.668;6.874;2022-11-23T02:22:49;99612.66;;;10.14;100.00
23679;BME280;12016;51.668;6.874;2022-11-23T02:35:04;99599.97;;;10.20;100.00
23679;BME280;12016;51.668;6.874;2022-11-23T02:41:06;99601.06;;;10.30;100.00
23679;BME280;12016;51.668;6.874;2022-11-23T02:47:10;99605.88;;;10.26;100.00
23679;BME280;12016;51.668;6.874;2022-11-23T02:53:12;99614.91;;;10.30;100.00
23679;BME280;12016;51.668;6.874;2022-11-23T02:59:14;99601.00;;;10.44;100.00
23679;BME280;12016;51.668;6.874;2022-11-23T03:05:17;99601.31;;;10.53;100.00
23679;BME280;12016;51.668;6.874;2022-11-23T03:11:19;99608.78;;;10.56;100.00
23679;BME280;12016;51.668;6.874;2022-11-23T03:17:22;99606.00;;;10.59;100.00
23679;BME280;12016;51.668;6.874;2022-11-23T03:23:24;99600.44;;;10.63;100.00
23679;BME280;12016;51.668;6.874;2022-11-23T03:29:27;99617.94;;;10.46;100.00
23679;BME280;12016;51.668;6.874;2022-11-23T03:35:31;99613.97;;;10.50;100.00
23679;BME280;12016;51.668;6.874;2022-11-23T03:41:52;99616.28;;;10.59;100.00
23679;BME280;12016;51.668;6.874;2022-11-23T03:47:57;99617.47;;;10.58;100.00
23679;BME280;12016;51.668;6.874;2022-11-23T03:53:59;99616.66;;;10.61;100.00
23679;BME280;12016;51.668;6.874;2022-11-23T04:00:03;99618.25;;;10.62;100.00
23679;BME280;12016;51.668;6.874;2022-11-23T04:06:13;99619.53;;;10.50;100.00
23679;BME280;12016;51.668;6.874;2022-11-23T04:12:31;99624.25;;;10.50;100.00
23679;BME280;12016;51.668;6.874;2022-11-23T04:18:33;99624.25;;;10.50;100.00
23679;BME280;12016;51.668;6.874;2022-11-23T04:24:37;99625.47;;;10.49;100.00
23679;BME280;12016;51.668;6.874;2022-11-23T04:30:41;99617.06;;;10.59;100.00
23679;BME280;12016;51.668;6.874;2022-11-23T04:36:43;99625.38;;;10.56;100.00
23679;BME280;12016;51.668;6.874;2022-11-23T04:42:48;99632.16;;;10.48;100.00
23679;BME280;12016;51.668;6.874;2022-11-23T04:48:49;99634.19;;;10.44;100.00
23679;BME280;12016;51.668;6.874;2022-11-23T04:54:53;99635.34;;;10.46;100.00
23679;BME280;12016;51.668;6.874;2022-11-23T05:00:57;99636.47;;;10.56;100.00
23679;BME280;12016;51.668;6.874;2022-11-23T05:07:00;99640.22;;;10.25;100.00
23679;BME280;12016;51.668;6.874;2022-11-23T05:13:03;99649.41;;;10.11;100.00
23679;BME280;12016;51.668;6.874;2022-11-23T05:19:05;99655.72;;;10.12;100.00
23679;BME280;12016;51.668;6.874;2022-11-23T05:25:14;99653.72;;;10.16;100.00
23679;BME280;12016;51.668;6.874;2022-11-23T05:31:18;99657.66;;;10.18;100.00
23679;BME280;12016;51.668;6.874;2022-11-23T05:37:21;99656.81;;;10.28;100.00
23679;BME280;12016;51.668;6.874;2022-11-23T05:43:34;99659.97;;;10.27;100.00
23679;BME280;12016;51.668;6.874;2022-11-23T05:49:36;99659.16;;;10.30;100.00
23679;BME280;12016;51.668;6.874;2022-11-23T05:55:39;99660.78;;;10.24;100.00
23679;BME280;12016;51.668;6.874;2022-11-23T06:01:41;99665.53;;;10.23;100.00
23679;BME280;12016;51.668;6.874;2022-11-23T06:07:51;99663.97;;;10.19;100.00
23679;BME280;12016;51.668;6.874;2022-11-23T06:13:57;99666.78;;;10.12;100.00
23679;BME280;12016;51.668;6.874;2022-11-23T06:19:59;99669.13;;;10.17;100.00
23679;BME280;12016;51.668;6.874;2022-11-23T06:26:01;99667.97;;;10.14;100.00
23679;BME280;12016;51.668;6.874;2022-11-23T06:32:05;99679.84;;;10.08;100.00
23679;BME280;12016;51.668;6.874;2022-11-23T06:38:09;99679.03;;;10.04;100.00
23679;BME280;12016;51.668;6.874;2022-11-23T06:44:12;99689.34;;;10.03;100.00
23679;BME280;12016;51.668;6.874;2022-11-23T06:50:17;99687.75;;;10.09;100.00
23679;BME280;12016;51.668;6.874;2022-11-23T06:56:21;99694.88;;;10.00;100.00
23679;BME280;12016;51.668;6.874;2022-11-23T07:02:23;99698.78;;;10.06;100.00
23679;BME280;12016;51.668;6.874;2022-11-23T07:08:27;99696.44;;;10.01;100.00
23679;BME280;12016;51.668;6.874;2022-11-23T07:14:31;99714.59;;;10.02;100.00
23679;BME280;12016;51.668;6.874;2022-11-23T07:20:34;99718.63;;;9.87;100.00
23679;BME280;12016;51.668;6.874;2022-11-23T07:26:37;99723.28;;;10.00;100.00
23679;BME280;12016;51.668;6.874;2022-11-23T07:32:40;99718.56;;;10.01;100.00
23679;BME280;12016;51.668;6.874;2022-11-23T07:38:42;99725.66;;;10.12;100.00
23679;BME280;12016;51.668;6.874;2022-11-23T07:44:45;99721.66;;;10.17;100.00
23679;BME280;12016;51.668;6.874;2022-11-23T07:50:47;99725.63;;;10.16;100.00
23679;BME280;12016;51.668;6.874;2022-11-23T07:56:52;99740.59;;;10.29;100.00
23679;BME280;12016;51.668;6.874;2022-11-23T08:02:56;99738.22;;;10.31;100.00
23679;BME280;12016;51.668;6.874;2022-11-23T08:09:18;99738.16;;;10.38;100.00
23679;BME280;12016;51.668;6.874;2022-11-23T08:15:20;99731.41;;;10.46;100.00
23679;BME280;12016;51.668;6.874;2022-11-23T08:21:22;99732.97;;;10.54;100.00
23679;BME280;12016;51.668;6.874;2022-11-23T08:27:24;99731.31;;;10.63;100.00
23679;BME280;12016;51.668;6.874;2022-11-23T08:33:25;99733.69;;;10.65;100.00
23679;BME280;12016;51.668;6.874;2022-11-23T08:39:28;99738.00;;;10.69;100.00
23679;BME280;12016;51.668;6.874;2022-11-23T08:45:30;99734.72;;;10.85;100.00
23679;BME280;12016;51.668;6.874;2022-11-23T08:51:33;99737.00;;;10.97;100.00
23679;BME280;12016;51.668;6.874;2022-11-23T08:57:35;99723.50;;;11.06;100.00
23679;BME280;12016;51.668;6.874;2022-11-23T09:03:38;99722.28;;;11.07;100.00
23679;BME280;12016;51.668;6.874;2022-11-23T09:09:40;99715.94;;;11.10;100.00
23679;BME280;12016;51.668;6.874;2022-11-23T09:15:42;99709.13;;;11.18;100.00
23679;BME280;12016;51.668;6.874;2022-11-23T09:21:44;99712.97;;;11.31;100.00
23679;BME280;12016;51.668;6.874;2022-11-23T09:27:46;99720.13;;;11.29;100.00
23679;BME280;12016;51.668;6.874;2022-11-23T09:33:51;99717.16;;;11.50;100.00
23679;BME280;12016;51.668;6.874;2022-11-23T09:39:53;99714.16;;;11.74;100.00
23679;BME280;12016;51.668;6.874;2022-11-23T09:45:56;99704.56;;;11.82;100.00
23679;BME280;12016;51.668;6.874;2022-11-23T09:52:02;99706.09;;;13.89;100.00
23679;BME280;12016;51.668;6.874;2022-11-23T09:58:04;99694.31;;;15.97;100.00
23679;BME280;12016;51.668;6.874;2022-11-23T10:04:14;99686.38;;;18.15;100.00
23679;BME280;12016;51.668;6.874;2022-11-23T10:16:48;99674.59;;;18.20;100.00
23679;BME280;12016;51.668;6.874;2022-11-23T10:22:58;99659.50;;;18.78;96.22
23679;BME280;12016;51.668;6.874;2022-11-23T10:29:24;99660.81;;;18.65;93.61
23679;BME280;12016;51.668;6.874;2022-11-23T10:35:32;99663.66;;;19.14;90.32
23679;BME280;12016;51.668;6.874;2022-11-23T10:41:34;99654.06;;;19.51;91.00
23679;BME280;12016;51.668;6.874;2022-11-23T10:47:39;99654.53;;;18.52;84.45
23679;BME280;12016;51.668;6.874;2022-11-23T10:53:42;99643.50;;;20.51;77.61
23679;BME280;12016;51.668;6.874;2022-11-23T10:59:56;99622.97;;;20.92;72.11
23679;BME280;12016;51.668;6.874;2022-11-23T11:06:00;99623.13;;;21.21;71.20
23679;BME280;12016;51.668;6.874;2022-11-23T11:12:17;99618.28;;;20.56;71.45
23679;BME280;12016;51.668;6.874;2022-11-23T11:18:19;99607.19;;;20.02;74.50
23679;BME280;12016;51.668;6.874;2022-11-23T11:30:42;99594.47;;;20.75;67.33
23679;BME280;12016;51.668;6.874;2022-11-23T11:36:53;99576.94;;;23.08;60.17
23679;BME280;12016;51.668;6.874;2022-11-23T11:43:02;99570.94;;;21.87;60.81
23679;BME280;12016;51.668;6.874;2022-11-23T11:49:17;99569.44;;;20.77;60.67
23679;BME280;12016;51.668;6.874;2022-11-23T12:01:50;99583.25;;;20.99;62.60
23679;BME280;12016;51.668;6.874;2022-11-23T12:14:11;99576.94;;;22.24;55.98
23679;BME280;12016;51.668;6.874;2022-11-23T12:20:25;99573.56;;;21.38;58.92
23679;BME280;12016;51.668;6.874;2022-11-23T12:45:34;99577.09;;;16.60;84.59
23679;BME280;12016;51.668;6.874;2022-11-23T12:52:00;99573.16;;;15.82;94.09
23679;BME280;12016;51.668;6.874;2022-11-23T12:58:18;99567.44;;;15.73;98.67
23679;BME280;12016;51.668;6.874;2022-11-23T13:04:42;99548.72;;;17.30;87.95
23679;BME280;12016;51.668;6.874;2022-11-23T13:23:12;99519.28;;;18.30;77.57
23679;BME280;12016;51.668;6.874;2022-11-23T13:29:54;99518.34;;;18.24;76.30
23679;BME280;12016;51.668;6.874;2022-11-23T13:35:58;99513.03;;;18.74;75.22
23679;BME280;12016;51.668;6.874;2022-11-23T13:42:04;99529.44;;;16.76;83.45
23679;BME280;12016;51.668;6.874;2022-11-23T13:54:21;99522.69;;;14.62;99.89
23679;BME280;12016;51.668;6.874;2022-11-23T14:07:28;99521.28;;;14.06;100.00
23679;BME280;12016;51.668;6.874;2022-11-23T14:13:34;99526.91;;;14.03;100.00
23679;BME280;12016;51.668;6.874;2022-11-23T14:39:08;99520.81;;;13.17;100.00
23679;BME280;12016;51.668;6.874;2022-11-23T14:45:21;99526.16;;;12.85;100.00
23679;BME280;12016;51.668;6.874;2022-11-23T14:51:24;99533.63;;;13.11;100.00
23679;BME280;12016;51.668;6.874;2022-11-23T14:57:37;99545.44;;;12.95;100.00
23679;BME280;12016;51.668;6.874;2022-11-23T15:03:40;99564.09;;;12.95;100.00
23679;BME280;12016;51.668;6.874;2022-11-23T15:15:56;99570.44;;;12.95;100.00
23679;BME280;12016;51.668;6.874;2022-11-23T15:21:59;99583.44;;;12.79;100.00
23679;BME280;12016;51.668;6.874;2022-11-23T15:28:00;99588.00;;;12.66;100.00
23679;BME280;12016;51.668;6.874;2022-11-23T15:34:10;99591.13;;;12.45;100.00
23679;BME280;12016;51.668;6.874;2022-11-23T15:40:15;99601.44;;;12.44;100.00
23679;BME280;12016;51.668;6.874;2022-11-23T15:46:17;99623.66;;;12.44;100.00
23679;BME280;12016;51.668;6.874;2022-11-23T15:52:19;99640.66;;;12.19;100.00
23679;BME280;12016;51.668;6.874;2022-11-23T15:58:22;99637.75;;;12.00;100.00
23679;BME280;12016;51.668;6.874;2022-11-23T16:04:36;99649.78;;;11.56;100.00
23679;BME280;12016;51.668;6.874;2022-11-23T16:10:52;99675.00;;;11.28;100.00
23679;BME280;12016;51.668;6.874;2022-11-23T16:16:59;99684.34;;;11.45;100.00
23679;BME280;12016;51.668;6.874;2022-11-23T16:23:04;99689.28;;;11.27;100.00
23679;BME280;12016;51.668;6.874;2022-11-23T16:29:19;99709.81;;;11.29;100.00
23679;BME280;12016;51.668;6.874;2022-11-23T16:35:22;99724.94;;;11.18;100.00
23679;BME280;12016;51.668;6.874;2022-11-23T16:41:23;99723.94;;;10.98;100.00
23679;BME280;12016;51.668;6.874;2022-11-23T16:47:26;99743.75;;;10.96;100.00
23679;BME280;12016;51.668;6.874;2022-11-23T16:53:29;99747.09;;;10.70;100.00
23679;BME280;12016;51.668;6.874;2022-11-23T16:59:38;99750.75;;;10.53;100.00
23679;BME280;12016;51.668;6.874;2022-11-23T17:05:41;99737.28;;;10.55;100.00
23679;BME280;12016;51.668;6.874;2022-11-23T17:11:45;99763.06;;;10.38;100.00
23679;BME280;12016;51.668;6.874;2022-11-23T17:17:48;99760.44;;;9.99;100.00
23679;BME280;12016;51.668;6.874;2022-11-23T17:23:50;99756.06;;;10.02;100.00
23679;BME280;12016;51.668;6.874;2022-11-23T17:29:58;99740.31;;;9.92;100.00
23679;BME280;12016;51.668;6.874;2022-11-23T17:36:00;99796.78;;;9.87;100.00
23679;BME280;12016;51.668;6.874;2022-11-23T17:42:02;99810.66;;;9.84;100.00
23679;BME280;12016;51.668;6.874;2022-11-23T17:48:05;99808.66;;;9.81;100.00
23679;BME280;12016;51.668;6.874;2022-11-23T17:54:07;99817.34;;;9.90;100.00
23679;BME280;12016;51.668;6.874;2022-11-23T18:00:20;99855.25;;;9.89;100.00
23679;BME280;12016;51.668;6.874;2022-11-23T18:06:23;99850.09;;;10.02;100.00
23679;BME280;12016;51.668;6.874;2022-11-23T18:12:25;99835.47;;;10.12;100.00
23679;BME280;12016;51.668;6.874;2022-11-23T18:18:27;99848.91;;;10.03;100.00
23679;BME280;12016;51.668;6.874;2022-11-23T18:24:29;99865.53;;;10.10;100.00
23679;BME280;12016;51.668;6.874;2022-11-23T18:30:31;99867.06;;;10.25;100.00
23679;BME280;12016;51.668;6.874;2022-11-23T18:36:33;99882.09;;;10.17;100.00
23679;BME280;12016;51.668;6.874;2022-11-23T18:42:34;99880.53;;;10.19;100.00
23679;BME280;12016;51.668;6.874;2022-11-23T18:48:40;99885.25;;;10.19;100.00
23679;BME280;12016;51.668;6.874;2022-11-23T18:54:42;99892.38;;;10.13;100.00
23679;BME280;12016;51.668;6.874;2022-11-23T19:00:44;99900.66;;;10.06;100.00
23679;BME280;12016;51.668;6.874;2022-11-23T19:06:45;99909.75;;;10.13;100.00
23679;BME280;12016;51.668;6.874;2022-11-23T19:12:47;99921.59;;;10.07;100.00
23679;BME280;12016;51.668;6.874;2022-11-23T19:18:54;99926.75;;;10.12;100.00
23679;BME280;12016;51.668;6.874;2022-11-23T19:24:55;99928.72;;;10.15;100.00
23679;BME280;12016;51.668;6.874;2022-11-23T19:30:58;99923.19;;;10.18;100.00
23679;BME280;12016;51.668;6.874;2022-11-23T19:37:00;99937.03;;;10.08;100.00
23679;BME280;12016;51.668;6.874;2022-11-23T19:43:01;99949.66;;;10.16;100.00
23679;BME280;12016;51.668;6.874;2022-11-23T19:49:03;99965.88;;;10.28;100.00
23679;BME280;12016;51.668;6.874;2022-11-23T19:55:05;99961.91;;;10.25;100.00
23679;BME280;12016;51.668;6.874;2022-11-23T20:01:11;99966.25;;;10.30;100.00
23679;BME280;12016;51.668;6.874;2022-11-23T20:07:12;99996.69;;;10.23;100.00
23679;BME280;12016;51.668;6.874;2022-11-23T20:13:14;100000.63;;;10.29;100.00
23679;BME280;12016;51.668;6.874;2022-11-23T20:19:16;100006.56;;;10.24;100.00
23679;BME280;12016;51.668;6.874;2022-11-23T20:25:18;100009.34;;;10.24;100.00
23679;BME280;12016;51.668;6.874;2022-11-23T20:31:22;100011.28;;;10.20;100.00
23679;BME280;12016;51.668;6.874;2022-11-23T20:37:24;100003.00;;;10.37;100.00
23679;BME280;12016;51.668;6.874;2022-11-23T20:43:26;100014.47;;;10.36;100.00
23679;BME280;12016;51.668;6.874;2022-11-23T20:49:28;100009.72;;;10.26;100.00
23679;BME280;12016;51.668;6.874;2022-11-23T20:55:30;100029.50;;;10.28;100.00
23679;BME280;12016;51.668;6.874;2022-11-23T21:01:33;100039.75;;;10.10;100.00
23679;BME280;12016;51.668;6.874;2022-11-23T21:07:35;100045.66;;;10.01;100.00
23679;BME280;12016;51.668;6.874;2022-11-23T21:13:37;100047.22;;;10.06;100.00
23679;BME280;12016;51.668;6.874;2022-11-23T21:19:57;100058.69;;;10.01;100.00
23679;BME280;12016;51.668;6.874;2022-11-23T21:26:03;100060.63;;;9.90;100.00
23679;BME280;12016;51.668;6.874;2022-11-23T21:32:06;100067.34;;;9.89;100.00
23679;BME280;12016;51.668;6.874;2022-11-23T21:38:07;100082.38;;;9.95;100.00
23679;BME280;12016;51.668;6.874;2022-11-23T21:44:09;100083.13;;;9.85;100.00
23679;BME280;12016;51.668;6.874;2022-11-23T21:50:11;100080.34;;;9.81;100.00
23679;BME280;12016;51.668;6.874;2022-11-23T21:56:14;100094.53;;;9.73;100.00
23679;BME280;12016;51.668;6.874;2022-11-23T22:02:17;100100.13;;;9.87;100.00
23679;BME280;12016;51.668;6.874;2022-11-23T22:08:19;100101.69;;;9.77;100.00
23679;BME280;12016;51.668;6.874;2022-11-23T22:14:29;100112.34;;;9.79;100.00
23679;BME280;12016;51.668;6.874;2022-11-23T22:20:34;100125.34;;;9.71;100.00
23679;BME280;12016;51.668;6.874;2022-11-23T22:26:35;100130.50;;;9.80;100.00
23679;BME280;12016;51.668;6.874;2022-11-23T22:32:37;100139.19;;;9.78;100.00
23679;BME280;12016;51.668;6.874;2022-11-23T22:38:40;100152.22;;;9.78;100.00
23679;BME280;12016;51.668;6.874;2022-11-23T22:44:42;100153.03;;;9.89;100.00
23679;BME280;12016;51.668;6.874;2022-11-23T22:50:54;100164.13;;;9.96;100.00
23679;BME280;12016;51.668;6.874;2022-11-23T22:56:56;100172.03;;;9.94;100.00
23679;BME280;12016;51.668;6.874;2022-11-23T23:02:59;100168.91;;;10.02;100.00
23679;BME280;12016;51.668;6.874;2022-11-23T23:09:02;100176.78;;;9.93;100.00
23679;BME280;12016;51.668;6.874;2022-11-23T23:15:04;100188.22;;;9.99;100.00
23679;BME280;12016;51.668;6.874;2022-11-23T23:21:08;100193.38;;;9.97;100.00
23679;BME280;12016;51.668;6.874;2022-11-23T23:27:11;100198.91;;;10.00;100.00
23679;BME280;12016;51.668;6.874;2022-11-23T23:33:13;100210.34;;;9.95;100.00
23679;BME280;12016;51.668;6.874;2022-11-23T23:39:15;100202.09;;;10.02;100.00
23679;BME280;12016;51.668;6.874;2022-11-23T23:45:16;100206.88;;;10.12;100.00
23679;BME280;12016;51.668;6.874;2022-11-23T23:51:23;100221.13;;;10.11;100.00
23679;BME280;12016;51.668;6.874;2022-11-23T23:57:25;100219.53;;;10.17;100.00
